Fuji Maru — JD2030 — position and weather

sailwx.info

Track history (hours):
 
Tides and Currents Weather Stations Pressure Air Temp Water Temp Dewpoint Dewpoint Depression Visibility Wind Speed Wind Dir Waves Ship Positions

Fuji Maru

Last reported at 2015-Apr-18 04:30 UTC. Time now 2015-Apr-18 04:52 UTC.
Position N 35°39' E 139°46'.

Length 38 m; draft 4.4 m.

Type: Tug. MMSI: 431001102.

Date/timePositionNaut miles runAvg speedWind from/ knotsBaromVisibWave heightAir tempDewpointWater temp
2015-Apr-18 04:30N 35°39' E 139°46'0 0.0
2015-Apr-18 03:12N 35°39' E 139°46'0 0.0
2015-Apr-18 02:21N 35°39' E 139°46'0 0.0
2015-Apr-18 01:33N 35°39' E 139°46'0 0.0
2015-Apr-18 00:24N 35°39' E 139°46'3 3.1
2015-Apr-17 23:27N 35°36' E 139°46'1 0.7
2015-Apr-17 22:33N 35°36' E 139°47'3 3.0
2015-Apr-17 21:29N 35°39' E 139°46'0 0.0
2015-Apr-17 20:32N 35°39' E 139°46'0 0.0
2015-Apr-17 19:32N 35°39' E 139°46'0 0.0
2015-Apr-17 18:32N 35°39' E 139°46'0 0.0
2015-Apr-17 17:29N 35°39' E 139°46'0 0.0
2015-Apr-17 16:32N 35°39' E 139°46'0 0.0
2015-Apr-17 15:17N 35°39' E 139°46'0 0.0
2015-Apr-17 14:29N 35°39' E 139°46'0 0.0
2015-Apr-17 13:32N 35°39' E 139°46'0 0.0
2015-Apr-17 12:32N 35°39' E 139°46'0 0.0
2015-Apr-17 11:32N 35°39' E 139°46'2 2.2
2015-Apr-17 10:29N 35°36' E 139°46'1 0.8
2015-Apr-17 09:33N 35°36' E 139°47'1 0.9
2015-Apr-17 08:33N 35°37' E 139°46'2 1.8
2015-Apr-17 07:19N 35°39' E 139°46'0 0.0
2015-Apr-17 06:31N 35°39' E 139°46'0 0.0
2015-Apr-17 05:31N 35°39' E 139°46'0 0.0
2015-Apr-17 04:31N 35°39' E 139°46'0 0.0
2015-Apr-17 03:16N 35°39' E 139°46'0 0.0
2015-Apr-17 02:19N 35°39' E 139°46'0 0.0
2015-Apr-17 01:22N 35°39' E 139°46'2 2.8
2015-Apr-17 00:33N 35°37' E 139°47'3 3.1
2015-Apr-16 23:33N 35°34' E 139°49'3 2.5
2015-Apr-16 22:33N 35°36' E 139°47'1 0.7
2015-Apr-16 21:32N 35°35' E 139°47'3 3.5
2015-Apr-16 20:32N 35°39' E 139°46'0 0.0
2015-Apr-16 19:32N 35°39' E 139°46'0 0.0
2015-Apr-16 18:29N 35°39' E 139°46'0 0.0
2015-Apr-16 17:23N 35°39' E 139°46'0 0.0
2015-Apr-16 16:32N 35°39' E 139°46'0 0.0
2015-Apr-16 15:29N 35°39' E 139°46'0 0.0
2015-Apr-16 14:14N 35°39' E 139°46'0 0.0
2015-Apr-16 13:32N 35°39' E 139°46'0 0.0
2015-Apr-16 12:23N 35°39' E 139°46'0 0.0
2015-Apr-16 11:29N 35°39' E 139°46'0 0.0
2015-Apr-16 10:29N 35°39' E 139°46'3 3.1
2015-Apr-16 09:26N 35°36' E 139°48'2 2.6
2015-Apr-16 08:33N 35°34' E 139°49'3 2.6
2015-Apr-16 07:33N 35°36' E 139°47'0 0.0
2015-Apr-16 06:30N 35°36' E 139°47'3 3.4
2015-Apr-16 05:33N 35°39' E 139°46'0 0.1
2015-Apr-16 04:31N 35°39' E 139°46'0 0.0
2015-Apr-16 03:28N 35°39' E 139°46'0 0.0
2015-Apr-16 02:31N 35°39' E 139°46'0 0.0
2015-Apr-16 01:28N 35°39' E 139°46'0 0.0
2015-Apr-16 00:28N 35°39' E 139°46'0 0.0
2015-Apr-15 23:31N 35°39' E 139°46'0 0.0
2015-Apr-15 22:32N 35°39' E 139°46'4 4.5
2015-Apr-15 21:34N 35°35' E 139°48'2 1.8
2015-Apr-15 20:33N 35°36' E 139°47'3 2.5
2015-Apr-15 19:31N 35°39' E 139°46'0 0.0
2015-Apr-15 18:31N 35°39' E 139°46'0 0.0
2015-Apr-15 17:28N 35°39' E 139°46'0 0.0
2015-Apr-15 16:28N 35°39' E 139°46'0 0.0
2015-Apr-15 15:31N 35°39' E 139°46'0 0.0
2015-Apr-15 14:22N 35°39' E 139°46'0 0.0
2015-Apr-15 13:25N 35°39' E 139°46'0 0.0
2015-Apr-15 12:22N 35°39' E 139°46'0 0.0
2015-Apr-15 11:31N 35°39' E 139°46'0 0.0
2015-Apr-15 10:31N 35°39' E 139°46'0 0.0
2015-Apr-15 09:25N 35°39' E 139°46'0 0.0
2015-Apr-15 08:31N 35°39' E 139°46'0 0.0
2015-Apr-15 07:31N 35°39' E 139°46'0 0.0
2015-Apr-15 06:28N 35°39' E 139°46'0 0.0
2015-Apr-15 05:25N 35°39' E 139°46'0 0.0
2015-Apr-15 04:22N 35°39' E 139°46'0 0.0
2015-Apr-15 03:28N 35°39' E 139°46'0 0.0
2015-Apr-15 02:28N 35°39' E 139°46'0 0.0
2015-Apr-15 01:28N 35°39' E 139°46'0 0.0
2015-Apr-15 00:31N 35°39' E 139°46'0 0.0
2015-Apr-14 23:31N 35°39' E 139°46'0 0.0
2015-Apr-14 22:31N 35°39' E 139°46'0 0.0
2015-Apr-14 21:28N 35°39' E 139°46'0 0.0
2015-Apr-14 20:16N 35°39' E 139°46'0 0.0
2015-Apr-14 19:31N 35°39' E 139°46'0 0.0
2015-Apr-14 18:31N 35°39' E 139°46'0 0.0
2015-Apr-14 17:31N 35°39' E 139°46'0 0.0
2015-Apr-14 16:04N 35°39' E 139°46'0 0.0
2015-Apr-14 15:31N 35°39' E 139°46'0 0.0
2015-Apr-14 14:31N 35°39' E 139°46'0 0.0
2015-Apr-14 13:10N 35°39' E 139°46'0 0.0
2015-Apr-14 12:22N 35°39' E 139°46'0 0.0
2015-Apr-14 11:28N 35°39' E 139°46'0 0.0
2015-Apr-14 10:28N 35°39' E 139°46'0 0.0
2015-Apr-14 09:31N 35°39' E 139°46'0 0.0
2015-Apr-14 08:31N 35°39' E 139°46'0 0.0
2015-Apr-14 07:31N 35°39' E 139°46'0 0.0
2015-Apr-14 06:31N 35°39' E 139°46'0 0.0
2015-Apr-14 05:31N 35°39' E 139°46'0 0.0
2015-Apr-14 04:28N 35°39' E 139°46'0 0.0
2015-Apr-14 03:22N 35°39' E 139°46'0 0.0
2015-Apr-14 02:31N 35°39' E 139°46'0 0.0
2015-Apr-14 01:22N 35°39' E 139°46'0 0.0
2015-Apr-14 00:28N 35°39' E 139°46'0 0.0
2015-Apr-13 23:25N 35°39' E 139°46'0 0.0
2015-Apr-13 22:28N 35°39' E 139°46'0 0.1
2015-Apr-13 21:33N 35°39' E 139°46'2 1.9
2015-Apr-13 20:33N 35°37' E 139°46'1 0.5
2015-Apr-13 19:33N 35°37' E 139°46'2 1.7
2015-Apr-13 18:33N 35°38' E 139°45'1 0.7
2015-Apr-13 17:33N 35°39' E 139°46'0 0.0
2015-Apr-13 16:30N 35°39' E 139°46'0 0.0
2015-Apr-13 15:30N 35°39' E 139°46'0 0.0
2015-Apr-13 14:30N 35°39' E 139°46'0 0.0
2015-Apr-13 13:27N 35°39' E 139°46'0 0.0
2015-Apr-13 12:33N 35°39' E 139°46'0 0.0
2015-Apr-13 11:33N 35°39' E 139°46'0 0.0
2015-Apr-13 10:24N 35°39' E 139°46'0 0.0
2015-Apr-13 09:33N 35°39' E 139°46'0 0.0
2015-Apr-13 08:33N 35°39' E 139°46'0 0.0
2015-Apr-13 07:33N 35°39' E 139°46'0 0.0
2015-Apr-13 06:33N 35°39' E 139°46'0 0.0
2015-Apr-13 05:33N 35°39' E 139°46'0 0.0
2015-Apr-13 04:33N 35°39' E 139°46'4 4.0
2015-Apr-13 03:33N 35°35' E 139°47'4 3.9
2015-Apr-13 02:33N 35°39' E 139°46'0 0.0
2015-Apr-13 01:33N 35°39' E 139°46'0 0.0
2015-Apr-13 00:30N 35°39' E 139°46'0 0.0
2015-Apr-12 23:30N 35°39' E 139°46'2 2.4
2015-Apr-12 22:30N 35°36' E 139°46'4 4.0
2015-Apr-12 21:32N 35°34' E 139°50'4 4.0
2015-Apr-12 20:33N 35°37' E 139°46'2 2.0
2015-Apr-12 19:33N 35°39' E 139°46'0 0.0
2015-Apr-12 18:30N 35°39' E 139°46'0 0.0
2015-Apr-12 17:33N 35°39' E 139°46'0 0.0
2015-Apr-12 16:24N 35°39' E 139°46'0 0.0
2015-Apr-12 15:18N 35°39' E 139°46'0 0.0
2015-Apr-12 14:33N 35°39' E 139°46'0 0.0
2015-Apr-12 13:24N 35°39' E 139°46'0 0.0
2015-Apr-12 12:27N 35°39' E 139°46'0 0.0
2015-Apr-12 11:33N 35°39' E 139°46'0 0.0
2015-Apr-12 10:24N 35°39' E 139°46'0 0.0
2015-Apr-12 09:30N 35°39' E 139°46'0 0.0
2015-Apr-12 08:24N 35°39' E 139°46'0 0.0
2015-Apr-12 07:27N 35°39' E 139°46'0 0.0
2015-Apr-12 06:33N 35°39' E 139°46'0 0.0
2015-Apr-12 05:33N 35°39' E 139°46'0 0.0
2015-Apr-12 04:33N 35°39' E 139°46'0 0.0
2015-Apr-12 03:33N 35°39' E 139°46'2 2.2
2015-Apr-12 02:33N 35°37' E 139°46'3 2.8
2015-Apr-12 01:32N 35°35' E 139°48'5 4.8
2015-Apr-12 00:33N 35°39' E 139°46'0 0.0
2015-Apr-11 23:30N 35°39' E 139°46'0 0.0
2015-Apr-11 22:33N 35°39' E 139°46'0 0.0
2015-Apr-11 21:33N 35°39' E 139°46'0 0.0
2015-Apr-11 20:33N 35°39' E 139°46'0 0.0
2015-Apr-11 19:30N 35°39' E 139°46'0 0.0
2015-Apr-11 18:27N 35°39' E 139°46'0 0.0
2015-Apr-11 17:33N 35°39' E 139°46'0 0.0
2015-Apr-11 16:33N 35°39' E 139°46'0 0.0
2015-Apr-11 15:33N 35°39' E 139°46'0 0.0
2015-Apr-11 14:33N 35°39' E 139°46'0 0.0
2015-Apr-11 13:30N 35°39' E 139°46'0 0.0
2015-Apr-11 12:30N 35°39' E 139°46'0 0.0
2015-Apr-11 11:27N 35°39' E 139°46'0 0.0
2015-Apr-11 10:27N 35°39' E 139°46'3 2.9
2015-Apr-11 09:33N 35°36' E 139°46'1 0.8
2015-Apr-11 08:27N 35°35' E 139°47'1 1.3
2015-Apr-11 07:33N 35°37' E 139°47'2 2.3
2015-Apr-11 06:31N 35°39' E 139°46'0 0.0
2015-Apr-11 05:28N 35°39' E 139°46'0 0.0
2015-Apr-11 04:31N 35°39' E 139°46'0 0.0
2015-Apr-11 03:25N 35°39' E 139°46'0 0.0
2015-Apr-11 02:31N 35°39' E 139°46'0 0.0
2015-Apr-11 01:31N 35°39' E 139°46'0 0.0
2015-Apr-11 00:31N 35°39' E 139°46'0 0.0
2015-Apr-10 23:31N 35°39' E 139°46'3 3.4
2015-Apr-10 22:33N 35°36' E 139°47'2 1.9
2015-Apr-10 21:33N 35°35' E 139°49'5 4.2
2015-Apr-10 20:24N 35°39' E 139°46'0 0.0
2015-Apr-10 19:33N 35°39' E 139°46'0 0.0
2015-Apr-10 18:33N 35°39' E 139°46'0 0.0
2015-Apr-10 17:33N 35°39' E 139°46'0 0.0
2015-Apr-10 16:15N 35°39' E 139°46'0 0.0
2015-Apr-10 15:33N 35°39' E 139°46'0 0.0
2015-Apr-10 14:33N 35°39' E 139°46'0 0.0
2015-Apr-10 13:33N 35°39' E 139°46'0 0.0
2015-Apr-10 12:33N 35°39' E 139°46'0 0.0
2015-Apr-10 11:33N 35°39' E 139°46'0 0.0
2015-Apr-10 10:33N 35°39' E 139°46'0 0.0
2015-Apr-10 09:18N 35°39' E 139°46'0 0.0
2015-Apr-10 08:30N 35°39' E 139°46'0 0.0
2015-Apr-10 07:30N 35°39' E 139°46'0 0.2
2015-Apr-10 06:30N 35°39' E 139°46'0 0.1
2015-Apr-10 05:18N 35°39' E 139°46'0 0.0
2015-Apr-10 04:27N 35°39' E 139°46'0 0.0
2015-Apr-10 03:21N 35°39' E 139°46'0 0.0
2015-Apr-10 02:24N 35°39' E 139°46'0 0.0
2015-Apr-10 01:33N 35°39' E 139°46'0 0.0
2015-Apr-10 00:33N 35°39' E 139°46'2 2.4
2015-Apr-09 23:33N 35°37' E 139°47'1 1.2
2015-Apr-09 22:34N 35°35' E 139°47'0 0.0
2015-Apr-09 21:28N 35°35' E 139°47'2 2.5
2015-Apr-09 20:33N 35°38' E 139°46'1 1.2
2015-Apr-09 19:30N 35°39' E 139°46'0 0.0
2015-Apr-09 18:33N 35°39' E 139°46'0 0.0
2015-Apr-09 17:33N 35°39' E 139°46'0 0.0
2015-Apr-09 16:15N 35°39' E 139°46'0 0.0
2015-Apr-09 15:33N 35°39' E 139°46'0 0.0
2015-Apr-09 14:33N 35°39' E 139°46'0 0.0
2015-Apr-09 13:33N 35°39' E 139°46'0 0.0
2015-Apr-09 12:33N 35°39' E 139°46'0 0.0
2015-Apr-09 11:33N 35°39' E 139°46'0 0.0
2015-Apr-09 10:30N 35°39' E 139°46'0 0.0
2015-Apr-09 09:33N 35°39' E 139°46'3 3.4
2015-Apr-09 08:33N 35°36' E 139°47'1 0.9
2015-Apr-09 07:33N 35°36' E 139°47'3 2.4
2015-Apr-09 06:31N 35°39' E 139°46'0 0.0
2015-Apr-09 05:13N 35°39' E 139°46'0 0.0
2015-Apr-09 04:28N 35°39' E 139°46'0 0.0
2015-Apr-09 03:22N 35°39' E 139°46'0 0.0
2015-Apr-09 02:25N 35°39' E 139°46'0 0.0
2015-Apr-09 01:31N 35°39' E 139°46'0 0.0
2015-Apr-09 00:19N 35°39' E 139°46'0 0.0
2015-Apr-08 23:28N 35°39' E 139°46'0 0.0
2015-Apr-08 22:31N 35°39' E 139°46'0 0.0
2015-Apr-08 21:22N 35°39' E 139°46'0 0.0
2015-Apr-08 20:28N 35°39' E 139°46'0 0.0
2015-Apr-08 19:28N 35°39' E 139°46'0 0.0
2015-Apr-08 18:31N 35°39' E 139°46'0 0.0
2015-Apr-08 17:31N 35°39' E 139°46'0 0.0
2015-Apr-08 16:31N 35°39' E 139°46'0 0.0
2015-Apr-08 15:31N 35°39' E 139°46'0 0.0
2015-Apr-08 14:19N 35°39' E 139°46'0 0.0
2015-Apr-08 13:31N 35°39' E 139°46'0 0.0
2015-Apr-08 12:31N 35°39' E 139°46'0 0.0
2015-Apr-08 11:28N 35°39' E 139°46'0 0.0
2015-Apr-08 10:31N 35°39' E 139°46'0 0.0
2015-Apr-08 09:31N 35°39' E 139°46'0 0.0
2015-Apr-08 08:31N 35°39' E 139°46'0 0.0
2015-Apr-08 07:28N 35°39' E 139°46'0 0.0
2015-Apr-08 06:28N 35°39' E 139°46'0 0.0
2015-Apr-08 05:28N 35°39' E 139°46'  
Track history (hours):
 
Tides and Currents Weather Stations Pressure Air Temp Water Temp Dewpoint Dewpoint Depression Visibility Wind Speed Wind Dir Waves Ship Positions

Fuji Maru

Last reported at 2015-Apr-18 04:30 UTC. Time now 2015-Apr-18 04:52 UTC.
Position N 35°39' E 139°46'.

Length 38 m; draft 4.4 m.

Type: Tug. MMSI: 431001102.

Date/timePositionNaut miles runAvg speedWind from/ knotsBaromVisibWave heightAir tempDewpointWater temp
2015-Apr-18 04:30N 35°39' E 139°46'0 0.0
2015-Apr-18 03:12N 35°39' E 139°46'0 0.0
2015-Apr-18 02:21N 35°39' E 139°46'0 0.0
2015-Apr-18 01:33N 35°39' E 139°46'0 0.0
2015-Apr-18 00:24N 35°39' E 139°46'3 3.1
2015-Apr-17 23:27N 35°36' E 139°46'1 0.7
2015-Apr-17 22:33N 35°36' E 139°47'3 3.0
2015-Apr-17 21:29N 35°39' E 139°46'0 0.0
2015-Apr-17 20:32N 35°39' E 139°46'0 0.0
2015-Apr-17 19:32N 35°39' E 139°46'0 0.0
2015-Apr-17 18:32N 35°39' E 139°46'0 0.0
2015-Apr-17 17:29N 35°39' E 139°46'0 0.0
2015-Apr-17 16:32N 35°39' E 139°46'0 0.0
2015-Apr-17 15:17N 35°39' E 139°46'0 0.0
2015-Apr-17 14:29N 35°39' E 139°46'0 0.0
2015-Apr-17 13:32N 35°39' E 139°46'0 0.0
2015-Apr-17 12:32N 35°39' E 139°46'0 0.0
2015-Apr-17 11:32N 35°39' E 139°46'2 2.2
2015-Apr-17 10:29N 35°36' E 139°46'1 0.8
2015-Apr-17 09:33N 35°36' E 139°47'1 0.9
2015-Apr-17 08:33N 35°37' E 139°46'2 1.8
2015-Apr-17 07:19N 35°39' E 139°46'0 0.0
2015-Apr-17 06:31N 35°39' E 139°46'0 0.0
2015-Apr-17 05:31N 35°39' E 139°46'0 0.0
2015-Apr-17 04:31N 35°39' E 139°46'0 0.0
2015-Apr-17 03:16N 35°39' E 139°46'0 0.0
2015-Apr-17 02:19N 35°39' E 139°46'0 0.0
2015-Apr-17 01:22N 35°39' E 139°46'2 2.8
2015-Apr-17 00:33N 35°37' E 139°47'3 3.1
2015-Apr-16 23:33N 35°34' E 139°49'3 2.5
2015-Apr-16 22:33N 35°36' E 139°47'1 0.7
2015-Apr-16 21:32N 35°35' E 139°47'3 3.5
2015-Apr-16 20:32N 35°39' E 139°46'0 0.0
2015-Apr-16 19:32N 35°39' E 139°46'0 0.0
2015-Apr-16 18:29N 35°39' E 139°46'0 0.0
2015-Apr-16 17:23N 35°39' E 139°46'0 0.0
2015-Apr-16 16:32N 35°39' E 139°46'0 0.0
2015-Apr-16 15:29N 35°39' E 139°46'0 0.0
2015-Apr-16 14:14N 35°39' E 139°46'0 0.0
2015-Apr-16 13:32N 35°39' E 139°46'0 0.0
2015-Apr-16 12:23N 35°39' E 139°46'0 0.0
2015-Apr-16 11:29N 35°39' E 139°46'0 0.0
2015-Apr-16 10:29N 35°39' E 139°46'3 3.1
2015-Apr-16 09:26N 35°36' E 139°48'2 2.6
2015-Apr-16 08:33N 35°34' E 139°49'3 2.6
2015-Apr-16 07:33N 35°36' E 139°47'0 0.0
2015-Apr-16 06:30N 35°36' E 139°47'3 3.4
2015-Apr-16 05:33N 35°39' E 139°46'0 0.1
2015-Apr-16 04:31N 35°39' E 139°46'0 0.0
2015-Apr-16 03:28N 35°39' E 139°46'0 0.0
2015-Apr-16 02:31N 35°39' E 139°46'0 0.0
2015-Apr-16 01:28N 35°39' E 139°46'0 0.0
2015-Apr-16 00:28N 35°39' E 139°46'0 0.0
2015-Apr-15 23:31N 35°39' E 139°46'0 0.0
2015-Apr-15 22:32N 35°39' E 139°46'4 4.5
2015-Apr-15 21:34N 35°35' E 139°48'2 1.8
2015-Apr-15 20:33N 35°36' E 139°47'3 2.5
2015-Apr-15 19:31N 35°39' E 139°46'0 0.0
2015-Apr-15 18:31N 35°39' E 139°46'0 0.0
2015-Apr-15 17:28N 35°39' E 139°46'0 0.0
2015-Apr-15 16:28N 35°39' E 139°46'0 0.0
2015-Apr-15 15:31N 35°39' E 139°46'0 0.0
2015-Apr-15 14:22N 35°39' E 139°46'0 0.0
2015-Apr-15 13:25N 35°39' E 139°46'0 0.0
2015-Apr-15 12:22N 35°39' E 139°46'0 0.0
2015-Apr-15 11:31N 35°39' E 139°46'0 0.0
2015-Apr-15 10:31N 35°39' E 139°46'0 0.0
2015-Apr-15 09:25N 35°39' E 139°46'0 0.0
2015-Apr-15 08:31N 35°39' E 139°46'0 0.0
2015-Apr-15 07:31N 35°39' E 139°46'0 0.0
2015-Apr-15 06:28N 35°39' E 139°46'0 0.0
2015-Apr-15 05:25N 35°39' E 139°46'0 0.0
2015-Apr-15 04:22N 35°39' E 139°46'0 0.0
2015-Apr-15 03:28N 35°39' E 139°46'0 0.0
2015-Apr-15 02:28N 35°39' E 139°46'0 0.0
2015-Apr-15 01:28N 35°39' E 139°46'0 0.0
2015-Apr-15 00:31N 35°39' E 139°46'0 0.0
2015-Apr-14 23:31N 35°39' E 139°46'0 0.0
2015-Apr-14 22:31N 35°39' E 139°46'0 0.0
2015-Apr-14 21:28N 35°39' E 139°46'0 0.0
2015-Apr-14 20:16N 35°39' E 139°46'0 0.0
2015-Apr-14 19:31N 35°39' E 139°46'0 0.0
2015-Apr-14 18:31N 35°39' E 139°46'0 0.0
2015-Apr-14 17:31N 35°39' E 139°46'0 0.0
2015-Apr-14 16:04N 35°39' E 139°46'0 0.0
2015-Apr-14 15:31N 35°39' E 139°46'0 0.0
2015-Apr-14 14:31N 35°39' E 139°46'0 0.0
2015-Apr-14 13:10N 35°39' E 139°46'0 0.0
2015-Apr-14 12:22N 35°39' E 139°46'0 0.0
2015-Apr-14 11:28N 35°39' E 139°46'0 0.0
2015-Apr-14 10:28N 35°39' E 139°46'0 0.0
2015-Apr-14 09:31N 35°39' E 139°46'0 0.0
2015-Apr-14 08:31N 35°39' E 139°46'0 0.0
2015-Apr-14 07:31N 35°39' E 139°46'0 0.0
2015-Apr-14 06:31N 35°39' E 139°46'0 0.0
2015-Apr-14 05:31N 35°39' E 139°46'0 0.0
2015-Apr-14 04:28N 35°39' E 139°46'0 0.0
2015-Apr-14 03:22N 35°39' E 139°46'0 0.0
2015-Apr-14 02:31N 35°39' E 139°46'0 0.0
2015-Apr-14 01:22N 35°39' E 139°46'0 0.0
2015-Apr-14 00:28N 35°39' E 139°46'0 0.0
2015-Apr-13 23:25N 35°39' E 139°46'0 0.0
2015-Apr-13 22:28N 35°39' E 139°46'0 0.1
2015-Apr-13 21:33N 35°39' E 139°46'2 1.9
2015-Apr-13 20:33N 35°37' E 139°46'1 0.5
2015-Apr-13 19:33N 35°37' E 139°46'2 1.7
2015-Apr-13 18:33N 35°38' E 139°45'1 0.7
2015-Apr-13 17:33N 35°39' E 139°46'0 0.0
2015-Apr-13 16:30N 35°39' E 139°46'0 0.0
2015-Apr-13 15:30N 35°39' E 139°46'0 0.0
2015-Apr-13 14:30N 35°39' E 139°46'0 0.0
2015-Apr-13 13:27N 35°39' E 139°46'0 0.0
2015-Apr-13 12:33N 35°39' E 139°46'0 0.0
2015-Apr-13 11:33N 35°39' E 139°46'0 0.0
2015-Apr-13 10:24N 35°39' E 139°46'0 0.0
2015-Apr-13 09:33N 35°39' E 139°46'0 0.0
2015-Apr-13 08:33N 35°39' E 139°46'0 0.0
2015-Apr-13 07:33N 35°39' E 139°46'0 0.0
2015-Apr-13 06:33N 35°39' E 139°46'0 0.0
2015-Apr-13 05:33N 35°39' E 139°46'0 0.0
2015-Apr-13 04:33N 35°39' E 139°46'4 4.0
2015-Apr-13 03:33N 35°35' E 139°47'4 3.9
2015-Apr-13 02:33N 35°39' E 139°46'0 0.0
2015-Apr-13 01:33N 35°39' E 139°46'0 0.0
2015-Apr-13 00:30N 35°39' E 139°46'0 0.0
2015-Apr-12 23:30N 35°39' E 139°46'2 2.4
2015-Apr-12 22:30N 35°36' E 139°46'4 4.0
2015-Apr-12 21:32N 35°34' E 139°50'4 4.0
2015-Apr-12 20:33N 35°37' E 139°46'2 2.0
2015-Apr-12 19:33N 35°39' E 139°46'0 0.0
2015-Apr-12 18:30N 35°39' E 139°46'0 0.0
2015-Apr-12 17:33N 35°39' E 139°46'0 0.0
2015-Apr-12 16:24N 35°39' E 139°46'0 0.0
2015-Apr-12 15:18N 35°39' E 139°46'0 0.0
2015-Apr-12 14:33N 35°39' E 139°46'0 0.0
2015-Apr-12 13:24N 35°39' E 139°46'0 0.0
2015-Apr-12 12:27N 35°39' E 139°46'0 0.0
2015-Apr-12 11:33N 35°39' E 139°46'0 0.0
2015-Apr-12 10:24N 35°39' E 139°46'0 0.0
2015-Apr-12 09:30N 35°39' E 139°46'0 0.0
2015-Apr-12 08:24N 35°39' E 139°46'0 0.0
2015-Apr-12 07:27N 35°39' E 139°46'0 0.0
2015-Apr-12 06:33N 35°39' E 139°46'0 0.0
2015-Apr-12 05:33N 35°39' E 139°46'0 0.0
2015-Apr-12 04:33N 35°39' E 139°46'0 0.0
2015-Apr-12 03:33N 35°39' E 139°46'2 2.2
2015-Apr-12 02:33N 35°37' E 139°46'3 2.8
2015-Apr-12 01:32N 35°35' E 139°48'5 4.8
2015-Apr-12 00:33N 35°39' E 139°46'0 0.0
2015-Apr-11 23:30N 35°39' E 139°46'0 0.0
2015-Apr-11 22:33N 35°39' E 139°46'0 0.0
2015-Apr-11 21:33N 35°39' E 139°46'0 0.0
2015-Apr-11 20:33N 35°39' E 139°46'0 0.0
2015-Apr-11 19:30N 35°39' E 139°46'0 0.0
2015-Apr-11 18:27N 35°39' E 139°46'0 0.0
2015-Apr-11 17:33N 35°39' E 139°46'0 0.0
2015-Apr-11 16:33N 35°39' E 139°46'0 0.0
2015-Apr-11 15:33N 35°39' E 139°46'0 0.0
2015-Apr-11 14:33N 35°39' E 139°46'0 0.0
2015-Apr-11 13:30N 35°39' E 139°46'0 0.0
2015-Apr-11 12:30N 35°39' E 139°46'0 0.0
2015-Apr-11 11:27N 35°39' E 139°46'0 0.0
2015-Apr-11 10:27N 35°39' E 139°46'3 2.9
2015-Apr-11 09:33N 35°36' E 139°46'1 0.8
2015-Apr-11 08:27N 35°35' E 139°47'1 1.3
2015-Apr-11 07:33N 35°37' E 139°47'2 2.3
2015-Apr-11 06:31N 35°39' E 139°46'0 0.0
2015-Apr-11 05:28N 35°39' E 139°46'0 0.0
2015-Apr-11 04:31N 35°39' E 139°46'0 0.0
2015-Apr-11 03:25N 35°39' E 139°46'0 0.0
2015-Apr-11 02:31N 35°39' E 139°46'0 0.0
2015-Apr-11 01:31N 35°39' E 139°46'0 0.0
2015-Apr-11 00:31N 35°39' E 139°46'0 0.0
2015-Apr-10 23:31N 35°39' E 139°46'3 3.4
2015-Apr-10 22:33N 35°36' E 139°47'2 1.9
2015-Apr-10 21:33N 35°35' E 139°49'5 4.2
2015-Apr-10 20:24N 35°39' E 139°46'0 0.0
2015-Apr-10 19:33N 35°39' E 139°46'0 0.0
2015-Apr-10 18:33N 35°39' E 139°46'0 0.0
2015-Apr-10 17:33N 35°39' E 139°46'0 0.0
2015-Apr-10 16:15N 35°39' E 139°46'0 0.0
2015-Apr-10 15:33N 35°39' E 139°46'0 0.0
2015-Apr-10 14:33N 35°39' E 139°46'0 0.0
2015-Apr-10 13:33N 35°39' E 139°46'0 0.0
2015-Apr-10 12:33N 35°39' E 139°46'0 0.0
2015-Apr-10 11:33N 35°39' E 139°46'0 0.0
2015-Apr-10 10:33N 35°39' E 139°46'0 0.0
2015-Apr-10 09:18N 35°39' E 139°46'0 0.0
2015-Apr-10 08:30N 35°39' E 139°46'0 0.0
2015-Apr-10 07:30N 35°39' E 139°46'0 0.2
2015-Apr-10 06:30N 35°39' E 139°46'0 0.1
2015-Apr-10 05:18N 35°39' E 139°46'0 0.0
2015-Apr-10 04:27N 35°39' E 139°46'0 0.0
2015-Apr-10 03:21N 35°39' E 139°46'0 0.0
2015-Apr-10 02:24N 35°39' E 139°46'0 0.0
2015-Apr-10 01:33N 35°39' E 139°46'0 0.0
2015-Apr-10 00:33N 35°39' E 139°46'2 2.4
2015-Apr-09 23:33N 35°37' E 139°47'1 1.2
2015-Apr-09 22:34N 35°35' E 139°47'0 0.0
2015-Apr-09 21:28N 35°35' E 139°47'2 2.5
2015-Apr-09 20:33N 35°38' E 139°46'1 1.2
2015-Apr-09 19:30N 35°39' E 139°46'0 0.0
2015-Apr-09 18:33N 35°39' E 139°46'0 0.0
2015-Apr-09 17:33N 35°39' E 139°46'0 0.0
2015-Apr-09 16:15N 35°39' E 139°46'0 0.0
2015-Apr-09 15:33N 35°39' E 139°46'0 0.0
2015-Apr-09 14:33N 35°39' E 139°46'0 0.0
2015-Apr-09 13:33N 35°39' E 139°46'0 0.0
2015-Apr-09 12:33N 35°39' E 139°46'0 0.0
2015-Apr-09 11:33N 35°39' E 139°46'0 0.0
2015-Apr-09 10:30N 35°39' E 139°46'0 0.0
2015-Apr-09 09:33N 35°39' E 139°46'3 3.4
2015-Apr-09 08:33N 35°36' E 139°47'1 0.9
2015-Apr-09 07:33N 35°36' E 139°47'3 2.4
2015-Apr-09 06:31N 35°39' E 139°46'0 0.0
2015-Apr-09 05:13N 35°39' E 139°46'0 0.0
2015-Apr-09 04:28N 35°39' E 139°46'0 0.0
2015-Apr-09 03:22N 35°39' E 139°46'0 0.0
2015-Apr-09 02:25N 35°39' E 139°46'0 0.0
2015-Apr-09 01:31N 35°39' E 139°46'0 0.0
2015-Apr-09 00:19N 35°39' E 139°46'0 0.0
2015-Apr-08 23:28N 35°39' E 139°46'0 0.0
2015-Apr-08 22:31N 35°39' E 139°46'0 0.0
2015-Apr-08 21:22N 35°39' E 139°46'0 0.0
2015-Apr-08 20:28N 35°39' E 139°46'0 0.0
2015-Apr-08 19:28N 35°39' E 139°46'0 0.0
2015-Apr-08 18:31N 35°39' E 139°46'0 0.0
2015-Apr-08 17:31N 35°39' E 139°46'0 0.0
2015-Apr-08 16:31N 35°39' E 139°46'0 0.0
2015-Apr-08 15:31N 35°39' E 139°46'0 0.0
2015-Apr-08 14:19N 35°39' E 139°46'0 0.0
2015-Apr-08 13:31N 35°39' E 139°46'0 0.0
2015-Apr-08 12:31N 35°39' E 139°46'0 0.0
2015-Apr-08 11:28N 35°39' E 139°46'0 0.0
2015-Apr-08 10:31N 35°39' E 139°46'0 0.0
2015-Apr-08 09:31N 35°39' E 139°46'0 0.0
2015-Apr-08 08:31N 35°39' E 139°46'0 0.0
2015-Apr-08 07:28N 35°39' E 139°46'0 0.0
2015-Apr-08 06:28N 35°39' E 139°46'0 0.0
2015-Apr-08 05:28N 35°39' E 139°46'  

Dump ship's entire track history